createdAt,value
2023-05-10T00:00:13.361Z,41.40
2023-05-10T00:02:44.225Z,45.97
2023-05-10T00:05:12.644Z,45.63
2023-05-10T00:07:41.345Z,38.58
2023-05-10T00:10:10.891Z,41.97
2023-05-10T00:12:39.437Z,46.40
2023-05-10T00:15:10.246Z,42.15
2023-05-10T00:17:38.607Z,42.03
2023-05-10T00:20:10.708Z,42.70
2023-05-10T00:22:39.164Z,40.33
2023-05-10T00:25:10.273Z,46.92
2023-05-10T00:27:38.587Z,49.05
2023-05-10T00:30:08.909Z,45.00
2023-05-10T00:32:37.501Z,52.13
2023-05-10T00:35:08.882Z,45.63
2023-05-10T00:37:37.203Z,42.88
2023-05-10T00:40:06.950Z,42.13
2023-05-10T00:42:35.528Z,48.28
2023-05-10T00:45:03.922Z,44.30
2023-05-10T00:47:32.619Z,51.83
2023-05-10T00:50:02.463Z,50.05
2023-05-10T00:52:32.986Z,48.65
2023-05-10T00:55:01.620Z,44.30
2023-05-10T00:57:30.105Z,34.92
2023-05-10T00:59:59.822Z,42.63
2023-05-10T01:02:28.397Z,36.20
2023-05-10T01:04:57.422Z,39.22
2023-05-10T01:07:25.999Z,48.20
2023-05-10T01:09:56.386Z,48.20
2023-05-10T01:12:24.894Z,39.40
2023-05-10T01:14:53.644Z,41.90
2023-05-10T01:17:23.288Z,43.63
2023-05-10T01:19:52.449Z,50.85
2023-05-10T01:23:02.823Z,44.88
2023-05-10T01:26:14.658Z,56.00
2023-05-10T01:29:34.342Z,48.60
2023-05-10T01:32:30.356Z,41.55
2023-05-10T01:35:05.907Z,48.38
2023-05-10T01:37:44.847Z,46.47
2023-05-10T01:40:24.386Z,49.03
2023-05-10T01:42:56.664Z,45.65
2023-05-10T01:45:34.260Z,38.22
2023-05-10T01:48:10.217Z,47.97
2023-05-10T01:50:44.117Z,53.30
2023-05-10T01:53:14.526Z,60.22
2023-05-10T01:55:49.173Z,56.30
2023-05-10T01:58:23.540Z,52.78
2023-05-10T02:00:54.720Z,52.33
2023-05-10T02:03:28.446Z,46.58
2023-05-10T02:05:58.580Z,57.63
2023-05-10T02:08:28.005Z,49.47
2023-05-10T02:10:58.595Z,47.97
2023-05-10T02:13:30.029Z,52.28
2023-05-10T02:15:59.992Z,57.75
2023-05-10T02:18:31.131Z,56.75
2023-05-10T02:21:01.304Z,53.63
2023-05-10T02:23:30.995Z,54.08
2023-05-10T02:26:01.617Z,53.47
2023-05-10T02:28:31.732Z,55.17
2023-05-10T02:31:00.874Z,57.28
2023-05-10T02:33:32.776Z,46.92
2023-05-10T02:36:02.240Z,61.97
2023-05-10T02:38:31.691Z,57.72
2023-05-10T02:41:01.724Z,61.72
2023-05-10T02:43:32.664Z,56.42
2023-05-10T02:46:01.796Z,62.67
2023-05-10T02:48:32.008Z,51.75
2023-05-10T02:51:08.163Z,47.33
2023-05-10T02:53:41.026Z,54.20
2023-05-10T02:56:19.553Z,59.20
2023-05-10T02:58:48.266Z,56.55
2023-05-10T03:01:16.715Z,60.85
2023-05-10T03:03:46.718Z,62.58
2023-05-10T03:06:15.369Z,55.53
2023-05-10T03:08:43.873Z,53.88
2023-05-10T03:11:28.609Z,66.63
2023-05-10T03:14:13.008Z,59.63
2023-05-10T03:16:49.324Z,57.58
2023-05-10T03:19:27.106Z,57.03
2023-05-10T03:21:57.301Z,58.33
2023-05-10T03:24:30.142Z,58.47
2023-05-10T03:27:03.830Z,63.80
2023-05-10T03:29:33.645Z,56.28
2023-05-10T03:32:02.888Z,68.78
2023-05-10T03:34:33.390Z,58.80
2023-05-10T03:37:02.242Z,63.08
2023-05-10T03:39:30.584Z,56.42
2023-05-10T03:41:58.994Z,59.67
2023-05-10T03:44:27.361Z,63.78
2023-05-10T03:46:59.426Z,70.10
2023-05-10T03:49:27.846Z,60.65
2023-05-10T03:51:57.892Z,60.67
2023-05-10T03:54:26.885Z,56.53
2023-05-10T03:56:55.400Z,65.03
2023-05-10T03:59:23.777Z,63.60
2023-05-10T04:01:52.101Z,69.18
2023-05-10T04:04:22.208Z,61.05
2023-05-10T04:06:50.843Z,59.33
2023-05-10T04:09:20.716Z,62.97
2023-05-10T04:11:49.102Z,67.95
2023-05-10T04:14:17.496Z,62.08
2023-05-10T04:16:46.021Z,64.15
2023-05-10T04:19:14.413Z,66.20
2023-05-10T04:21:43.019Z,68.85
2023-05-10T04:24:12.295Z,63.28
2023-05-10T04:26:43.148Z,70.47
2023-05-10T04:29:11.529Z,69.30
2023-05-10T04:31:39.920Z,68.97
2023-05-10T04:34:08.307Z,60.47
2023-05-10T04:36:37.667Z,56.72
2023-05-10T04:39:07.750Z,61.58
2023-05-10T04:41:36.204Z,62.42
2023-05-10T04:44:06.929Z,61.08
2023-05-10T04:46:35.414Z,52.65
2023-05-10T04:49:03.770Z,67.60
2023-05-10T04:51:32.370Z,57.35
2023-05-10T04:54:06.651Z,72.10
2023-05-10T04:56:35.359Z,72.57
2023-05-10T04:59:05.215Z,77.75
2023-05-10T05:01:33.591Z,85.03
2023-05-10T05:04:02.599Z,84.60
2023-05-10T05:06:30.870Z,76.57
2023-05-10T05:08:59.601Z,75.95
2023-05-10T05:11:28.007Z,81.13
2023-05-10T05:13:56.341Z,84.00
2023-05-10T05:16:26.574Z,81.40
2023-05-10T05:18:55.327Z,90.55
2023-05-10T05:21:23.853Z,81.57
2023-05-10T05:23:52.303Z,84.97
2023-05-10T05:26:20.663Z,71.50
2023-05-10T05:28:49.853Z,77.47
2023-05-10T05:31:18.800Z,73.90
2023-05-10T05:33:48.973Z,68.60
2023-05-10T05:36:17.558Z,71.90
2023-05-10T05:38:46.042Z,72.18
2023-05-10T05:41:14.571Z,73.53
2023-05-10T05:43:43.325Z,73.55
2023-05-10T05:46:11.942Z,70.80
2023-05-10T05:48:40.434Z,72.55
2023-05-10T05:51:10.324Z,58.88
2023-05-10T05:53:38.761Z,53.30
2023-05-10T05:56:08.916Z,46.40
2023-05-10T05:58:37.539Z,52.13
2023-05-10T06:01:06.118Z,47.33
2023-05-10T06:03:34.940Z,43.58
2023-05-10T06:06:03.402Z,45.95
2023-05-10T06:08:34.911Z,43.63
2023-05-10T06:11:05.047Z,38.35
2023-05-10T06:13:36.287Z,43.70
2023-05-10T06:16:05.754Z,47.45
2023-05-10T06:18:34.135Z,50.00
2023-05-10T06:21:02.715Z,50.05
2023-05-10T06:23:33.153Z,49.15
2023-05-10T06:26:01.517Z,49.42
2023-05-10T06:28:29.889Z,54.60
2023-05-10T06:30:58.500Z,50.65
2023-05-10T06:33:27.393Z,54.67
2023-05-10T06:35:55.807Z,46.97
2023-05-10T06:38:24.278Z,48.35
2023-05-10T06:40:54.119Z,46.63
2023-05-10T06:43:22.731Z,58.03
2023-05-10T06:45:51.295Z,52.28
2023-05-10T06:48:19.866Z,50.45
2023-05-10T06:50:48.789Z,50.50
2023-05-10T06:53:17.570Z,56.13
2023-05-10T06:55:46.242Z,63.40
2023-05-10T06:58:17.049Z,53.92
2023-05-10T07:00:46.613Z,51.83
2023-05-10T07:03:15.198Z,54.92
2023-05-10T07:05:43.792Z,51.47
2023-05-10T07:08:12.154Z,57.45
2023-05-10T07:10:40.759Z,52.88
2023-05-10T07:13:09.514Z,57.10
2023-05-10T07:15:39.886Z,60.33
2023-05-10T07:18:08.367Z,52.80
2023-05-10T07:20:36.913Z,63.60
2023-05-10T07:23:05.341Z,61.10
2023-05-10T07:25:33.746Z,59.10
2023-05-10T07:28:02.358Z,52.33
2023-05-10T07:30:30.707Z,53.47
2023-05-10T07:33:01.122Z,52.50
2023-05-10T07:35:29.525Z,46.22
2023-05-10T07:37:57.837Z,43.03
2023-05-10T07:40:26.265Z,47.30
2023-05-10T07:42:54.669Z,40.75
2023-05-10T07:45:23.191Z,40.97
2023-05-10T07:47:51.581Z,38.10
2023-05-10T07:50:22.579Z,34.35
2023-05-10T07:52:51.032Z,36.30
2023-05-10T07:55:22.169Z,33.42
2023-05-10T07:57:50.938Z,35.85
2023-05-10T08:00:21.480Z,38.92
2023-05-10T08:02:50.530Z,42.72
2023-05-10T08:05:20.528Z,31.67
2023-05-10T08:07:49.108Z,28.10
2023-05-10T08:10:17.946Z,34.28
2023-05-10T08:12:46.610Z,29.85
2023-05-10T08:15:15.316Z,34.15
2023-05-10T08:17:44.228Z,35.47
2023-05-10T08:20:13.886Z,30.48
2023-05-10T08:22:43.722Z,33.38
2023-05-10T08:25:12.362Z,37.05
2023-05-10T08:27:40.854Z,31.27
2023-05-10T08:30:11.601Z,25.60
2023-05-10T08:32:40.133Z,27.10
2023-05-10T08:35:08.912Z,22.17
2023-05-10T08:37:37.344Z,19.92
2023-05-10T08:40:09.232Z,21.35
2023-05-10T08:42:39.124Z,13.52
2023-05-10T08:45:10.131Z,14.52
2023-05-10T08:47:40.148Z,16.30
2023-05-10T08:50:10.132Z,18.98
2023-05-10T08:52:42.804Z,16.23
2023-05-10T08:55:13.146Z,16.52
2023-05-10T08:57:41.600Z,14.43
2023-05-10T09:00:12.215Z,15.25
2023-05-10T09:02:40.735Z,14.20
2023-05-10T09:05:11.604Z,13.88
2023-05-10T09:07:40.119Z,16.73
2023-05-10T09:10:12.486Z,17.52
2023-05-10T09:12:41.286Z,14.43
2023-05-10T09:15:11.744Z,10.95
2023-05-10T09:17:43.946Z,14.27
2023-05-10T09:20:12.706Z,10.18
2023-05-10T09:22:41.184Z,13.52
2023-05-10T09:25:13.672Z,13.07
2023-05-10T09:27:46.010Z,12.38
2023-05-10T09:30:26.943Z,11.35
2023-05-10T09:32:56.202Z,8.95
2023-05-10T09:35:29.497Z,11.27
2023-05-10T09:38:02.014Z,11.95
2023-05-10T09:40:33.130Z,12.05
2023-05-10T09:43:04.066Z,11.27
2023-05-10T09:45:38.264Z,13.00
2023-05-10T09:48:08.053Z,15.55
2023-05-10T09:50:36.582Z,11.30
2023-05-10T09:53:05.788Z,12.90
2023-05-10T09:55:46.425Z,9.35
2023-05-10T09:58:15.766Z,11.48
2023-05-10T10:00:46.736Z,11.40
2023-05-10T10:03:18.299Z,10.85
2023-05-10T10:05:47.855Z,11.10
2023-05-10T10:08:17.595Z,11.80
2023-05-10T10:10:47.777Z,12.10
2023-05-10T10:13:16.782Z,9.82
2023-05-10T10:15:47.016Z,12.07
2023-05-10T10:18:16.965Z,10.13
2023-05-10T10:20:45.649Z,12.38
2023-05-10T10:23:16.502Z,13.10
2023-05-10T10:25:49.975Z,11.38
2023-05-10T10:28:34.939Z,11.82
2023-05-10T10:31:17.996Z,10.27
2023-05-10T10:34:02.029Z,14.60
2023-05-10T10:36:31.415Z,10.68
2023-05-10T10:39:01.892Z,10.23
2023-05-10T10:41:34.399Z,11.88
2023-05-10T10:44:35.937Z,10.90
2023-05-10T10:47:09.718Z,8.90
2023-05-10T10:49:48.137Z,11.20
2023-05-10T10:52:30.959Z,11.02
2023-05-10T10:55:06.445Z,10.20
2023-05-10T10:57:47.671Z,10.07
2023-05-10T11:00:26.230Z,10.25
2023-05-10T11:02:57.328Z,13.90
2023-05-10T11:05:44.801Z,11.75
2023-05-10T11:08:19.848Z,11.43
2023-05-10T11:11:08.941Z,14.52
2023-05-10T11:13:43.073Z,13.63
2023-05-10T11:16:18.880Z,9.23
2023-05-10T11:19:03.064Z,14.73
2023-05-10T11:21:32.408Z,13.88
2023-05-10T11:24:07.111Z,16.02
2023-05-10T11:26:38.525Z,18.02
2023-05-10T11:29:08.374Z,17.55
2023-05-10T11:31:37.508Z,16.00
2023-05-10T11:34:06.096Z,12.70
2023-05-10T11:36:37.883Z,14.23
2023-05-10T11:39:07.674Z,15.45
2023-05-10T11:41:36.488Z,17.17
2023-05-10T11:44:04.951Z,13.63
2023-05-10T11:46:35.126Z,16.30
2023-05-10T11:49:05.598Z,12.77
2023-05-10T11:51:37.976Z,10.50
2023-05-10T11:54:10.575Z,12.32
2023-05-10T11:56:39.642Z,13.32
2023-05-10T11:59:09.103Z,12.05
2023-05-10T12:01:39.356Z,12.07
2023-05-10T12:04:08.129Z,11.98
2023-05-10T12:06:43.452Z,13.35
2023-05-10T12:09:12.016Z,9.93
2023-05-10T12:11:44.648Z,11.60
2023-05-10T12:14:13.458Z,11.60
2023-05-10T12:16:45.670Z,10.43
2023-05-10T12:19:14.354Z,11.05
2023-05-10T12:21:43.051Z,11.15
2023-05-10T12:24:11.560Z,10.45
2023-05-10T12:26:40.297Z,9.98
2023-05-10T12:29:16.890Z,9.70
2023-05-10T12:32:01.257Z,9.48
2023-05-10T12:34:37.514Z,10.85
2023-05-10T12:37:12.449Z,7.85
2023-05-10T12:39:45.040Z,10.45
2023-05-10T12:42:14.135Z,10.00
2023-05-10T12:44:42.567Z,8.02
2023-05-10T12:47:24.632Z,9.73
2023-05-10T12:49:53.202Z,7.18
2023-05-10T12:52:21.540Z,11.43
2023-05-10T12:54:50.171Z,8.25
2023-05-10T12:57:19.060Z,9.40
2023-05-10T12:59:47.846Z,8.00
2023-05-10T13:02:19.603Z,8.30
2023-05-10T13:04:50.808Z,10.52
2023-05-10T13:07:27.722Z,8.70
2023-05-10T13:09:56.026Z,10.25
2023-05-10T13:12:24.539Z,9.07
2023-05-10T13:14:53.378Z,6.32
2023-05-10T13:17:23.089Z,7.18
2023-05-10T13:19:51.511Z,8.38
2023-05-10T13:22:28.746Z,10.77
2023-05-10T13:25:05.827Z,11.88
2023-05-10T13:27:34.177Z,10.40
2023-05-10T13:30:06.748Z,9.55
2023-05-10T13:32:37.403Z,9.10
2023-05-10T13:35:07.200Z,11.13
2023-05-10T13:37:38.226Z,8.32
2023-05-10T13:40:08.624Z,10.32
2023-05-10T13:42:37.272Z,11.35
2023-05-10T13:45:07.059Z,12.45
2023-05-10T13:47:37.402Z,13.55
2023-05-10T13:50:06.903Z,10.32
2023-05-10T13:52:35.340Z,12.68
2023-05-10T13:55:04.011Z,13.13
2023-05-10T13:57:32.522Z,11.80
2023-05-10T14:00:01.455Z,13.05
2023-05-10T14:02:30.035Z,11.45
2023-05-10T14:04:59.951Z,8.48
2023-05-10T14:07:28.396Z,8.48
2023-05-10T14:09:57.151Z,10.05
2023-05-10T14:12:25.600Z,9.73
2023-05-10T14:14:54.310Z,11.57
2023-05-10T14:17:23.271Z,9.73
2023-05-10T14:19:51.758Z,7.60
2023-05-10T14:22:21.838Z,8.30
2023-05-10T14:24:50.277Z,8.57
2023-05-10T14:27:19.114Z,8.27
2023-05-10T14:29:47.686Z,9.45
2023-05-10T14:32:16.338Z,8.43
2023-05-10T14:34:44.709Z,12.05
2023-05-10T14:37:13.561Z,7.20
2023-05-10T14:39:43.859Z,8.10
2023-05-10T14:42:12.247Z,10.43
2023-05-10T14:44:40.844Z,9.43
2023-05-10T14:47:11.659Z,7.47
2023-05-10T14:49:41.665Z,9.13
2023-05-10T14:52:10.063Z,11.73
2023-05-10T14:54:38.417Z,7.68
2023-05-10T14:57:08.257Z,9.23
2023-05-10T14:59:36.596Z,5.57
2023-05-10T15:02:06.569Z,9.18
2023-05-10T15:04:35.388Z,8.23
2023-05-10T15:07:05.167Z,8.70
2023-05-10T15:09:33.601Z,7.93
2023-05-10T15:12:03.144Z,8.57
2023-05-10T15:14:37.194Z,10.30
2023-05-10T15:17:05.973Z,10.85
2023-05-10T15:19:34.635Z,12.43
2023-05-10T15:22:03.363Z,15.82
2023-05-10T15:24:31.726Z,13.18
2023-05-10T15:27:00.042Z,14.05
2023-05-10T15:29:28.449Z,14.43
2023-05-10T15:31:58.249Z,16.00
2023-05-10T15:34:26.757Z,15.30
2023-05-10T15:36:55.144Z,12.95
2023-05-10T15:39:23.608Z,11.88
2023-05-10T15:41:52.034Z,13.35
2023-05-10T15:44:20.377Z,12.50
2023-05-10T15:46:49.189Z,13.43
2023-05-10T15:49:19.305Z,11.60
2023-05-10T15:51:47.830Z,12.25
2023-05-10T15:54:16.269Z,14.05
2023-05-10T15:56:44.598Z,12.30
2023-05-10T15:59:13.600Z,11.98
2023-05-10T16:01:42.813Z,11.50
2023-05-10T16:04:11.256Z,11.68
2023-05-10T16:06:41.919Z,9.68
2023-05-10T16:09:10.788Z,12.90
2023-05-10T16:11:39.317Z,10.95
2023-05-10T16:14:08.300Z,14.23
2023-05-10T16:16:37.184Z,9.30
2023-05-10T16:19:05.607Z,11.50
2023-05-10T16:21:34.359Z,9.88
2023-05-10T16:24:05.264Z,10.02
2023-05-10T16:26:36.685Z,10.82
2023-05-10T16:29:05.095Z,8.63
2023-05-10T16:31:33.505Z,10.02
2023-05-10T16:34:02.258Z,7.90
2023-05-10T16:36:31.230Z,8.13
2023-05-10T16:39:00.807Z,8.93
2023-05-10T16:41:34.978Z,8.65
2023-05-10T16:44:04.121Z,10.15
2023-05-10T16:46:33.203Z,9.23
2023-05-10T16:49:02.019Z,10.07
2023-05-10T16:51:30.449Z,10.73
2023-05-10T16:53:59.023Z,8.23
2023-05-10T16:56:27.544Z,9.23
2023-05-10T16:58:57.998Z,9.68
2023-05-10T17:01:27.182Z,10.55
2023-05-10T17:03:55.984Z,10.02
2023-05-10T17:06:24.510Z,9.02
2023-05-10T17:08:53.105Z,15.35
2023-05-10T17:11:21.926Z,14.57
2023-05-10T17:13:52.427Z,17.50
2023-05-10T17:16:22.465Z,15.07
2023-05-10T17:18:50.912Z,12.98
2023-05-10T17:21:19.520Z,14.77
2023-05-10T17:23:48.037Z,14.32
2023-05-10T17:26:17.101Z,14.15
2023-05-10T17:28:45.669Z,13.32
2023-05-10T17:31:13.980Z,14.32
2023-05-10T17:33:43.819Z,12.00
2023-05-10T17:36:12.447Z,12.85
2023-05-10T17:38:40.761Z,13.55
2023-05-10T17:41:09.029Z,10.20
2023-05-10T17:43:37.402Z,9.55
2023-05-10T17:46:05.761Z,9.48
2023-05-10T17:48:34.104Z,10.27
2023-05-10T17:51:04.027Z,11.95
2023-05-10T17:53:32.662Z,9.93
2023-05-10T17:56:01.657Z,12.77
2023-05-10T17:58:30.405Z,10.73
2023-05-10T18:00:58.763Z,10.25
2023-05-10T18:03:27.183Z,11.35
2023-05-10T18:05:56.239Z,13.02
2023-05-10T18:08:27.449Z,11.05
2023-05-10T18:10:55.956Z,10.35
2023-05-10T18:13:25.622Z,13.77
2023-05-10T18:15:54.214Z,11.65
2023-05-10T18:18:22.634Z,14.27
2023-05-10T18:20:56.488Z,13.48
2023-05-10T18:23:26.707Z,11.13
2023-05-10T18:25:55.115Z,10.32
2023-05-10T18:28:24.592Z,11.18
2023-05-10T18:30:53.000Z,12.85
2023-05-10T18:33:21.407Z,12.25
2023-05-10T18:35:50.091Z,11.40
2023-05-10T18:38:19.585Z,11.98
2023-05-10T18:40:49.806Z,9.68
2023-05-10T18:43:18.230Z,11.18
2023-05-10T18:45:46.686Z,9.32
2023-05-10T18:48:15.010Z,10.30
2023-05-10T18:50:43.494Z,9.50
2023-05-10T18:53:12.307Z,10.10
2023-05-10T18:55:40.832Z,9.25
2023-05-10T18:58:10.728Z,9.88
2023-05-10T19:00:39.187Z,11.95
2023-05-10T19:03:08.001Z,9.93
2023-05-10T19:05:37.225Z,9.90
2023-05-10T19:08:08.399Z,11.10
2023-05-10T19:10:37.726Z,11.68
2023-05-10T19:13:10.593Z,13.80
2023-05-10T19:15:39.359Z,9.10
2023-05-10T19:18:07.988Z,10.93
2023-05-10T19:20:36.437Z,12.57
2023-05-10T19:25:37.368Z,11.73
2023-05-10T19:28:05.750Z,11.63
2023-05-10T19:30:35.790Z,12.45
2023-05-10T19:33:06.010Z,12.07
2023-05-10T19:35:34.393Z,13.00
2023-05-10T19:38:02.909Z,13.50
2023-05-10T19:40:31.305Z,11.90
2023-05-10T19:43:00.739Z,17.98
2023-05-10T19:45:29.068Z,10.95
2023-05-10T19:47:59.189Z,13.70
2023-05-10T19:50:27.545Z,14.18
2023-05-10T19:52:58.206Z,12.88
2023-05-10T19:55:32.021Z,11.02
2023-05-10T19:58:01.625Z,12.80
2023-05-10T20:00:30.399Z,13.50
2023-05-10T20:03:00.351Z,14.93
2023-05-10T20:05:30.306Z,12.60
2023-05-10T20:07:58.693Z,11.48
2023-05-10T20:10:27.311Z,11.35
2023-05-10T20:12:55.637Z,13.82
2023-05-10T20:15:25.092Z,12.23
2023-05-10T20:17:54.064Z,11.77
2023-05-10T20:20:24.092Z,12.65
2023-05-10T20:22:52.779Z,14.80
2023-05-10T20:25:21.152Z,19.65
2023-05-10T20:27:50.901Z,13.88
2023-05-10T20:30:19.649Z,13.27
2023-05-10T20:32:48.982Z,18.60
2023-05-10T20:35:17.710Z,13.80
2023-05-10T20:37:48.439Z,18.33
2023-05-10T20:40:17.081Z,15.48
2023-05-10T20:42:45.922Z,12.43
2023-05-10T20:45:14.352Z,12.20
2023-05-10T20:47:42.914Z,14.00
2023-05-10T20:50:11.963Z,13.25
2023-05-10T20:52:40.265Z,14.02
2023-05-10T20:55:11.376Z,11.32
2023-05-10T20:57:39.745Z,13.70
2023-05-10T21:00:10.561Z,14.35
2023-05-10T21:02:38.959Z,13.27
2023-05-10T21:05:08.807Z,13.77
2023-05-10T21:07:37.169Z,17.70
2023-05-10T21:10:07.140Z,15.98
2023-05-10T21:12:36.951Z,14.07
2023-05-10T21:15:06.346Z,12.50
2023-05-10T21:17:35.077Z,15.18
2023-05-10T21:20:03.969Z,11.45
2023-05-10T21:22:32.278Z,12.18
2023-05-10T21:25:01.053Z,16.55
2023-05-10T21:27:29.420Z,11.98
2023-05-10T21:29:59.123Z,14.13
2023-05-10T21:32:27.697Z,11.63
2023-05-10T21:34:56.042Z,8.93
2023-05-10T21:37:24.527Z,9.10
2023-05-10T21:39:54.143Z,9.18
2023-05-10T21:42:22.486Z,8.05
2023-05-10T21:44:50.829Z,7.10
2023-05-10T21:47:20.577Z,8.80
2023-05-10T21:49:50.607Z,9.35
2023-05-10T21:52:19.108Z,6.40
2023-05-10T21:54:47.816Z,7.00
2023-05-10T21:57:16.249Z,7.07
2023-05-10T21:59:44.671Z,8.48
2023-05-10T22:02:13.144Z,8.63
2023-05-10T22:04:43.569Z,9.85
2023-05-10T22:07:11.963Z,10.48
2023-05-10T22:09:40.725Z,13.48
2023-05-10T22:12:09.197Z,13.02
2023-05-10T22:14:37.574Z,11.48
2023-05-10T22:17:06.139Z,11.20
2023-05-10T22:19:34.512Z,10.63
2023-05-10T22:22:04.287Z,14.90
2023-05-10T22:24:32.913Z,11.35
2023-05-10T22:27:01.451Z,10.15
2023-05-10T22:29:30.521Z,12.48
2023-05-10T22:31:59.471Z,15.00
2023-05-10T22:34:27.866Z,17.27
2023-05-10T22:36:56.663Z,17.08
2023-05-10T22:39:26.391Z,18.25
2023-05-10T22:41:54.729Z,17.73
2023-05-10T22:44:23.047Z,15.10
2023-05-10T22:46:51.779Z,17.45
2023-05-10T22:49:20.299Z,16.67
2023-05-10T22:51:48.997Z,23.67
2023-05-10T22:54:17.333Z,16.63
2023-05-10T22:56:47.547Z,21.20
2023-05-10T22:59:16.148Z,18.60
2023-05-10T23:01:44.468Z,17.23
2023-05-10T23:04:12.818Z,18.67
2023-05-10T23:06:41.376Z,17.58
2023-05-10T23:09:09.837Z,21.92
2023-05-10T23:11:38.197Z,19.80
2023-05-10T23:14:07.900Z,19.70
2023-05-10T23:16:36.706Z,19.58
2023-05-10T23:19:05.307Z,16.83
2023-05-10T23:21:33.826Z,15.73
2023-05-10T23:24:02.232Z,17.45
2023-05-10T23:26:30.544Z,21.67
2023-05-10T23:28:58.892Z,15.50
2023-05-10T23:31:28.680Z,17.67
2023-05-10T23:33:57.173Z,19.52
2023-05-10T23:36:25.567Z,20.05
2023-05-10T23:38:53.920Z,15.68
2023-05-10T23:41:22.459Z,13.77
2023-05-10T23:43:50.983Z,17.25
2023-05-10T23:46:19.362Z,16.15
2023-05-10T23:48:49.509Z,17.75
2023-05-10T23:51:17.859Z,16.65
2023-05-10T23:53:46.453Z,18.35
2023-05-10T23:56:14.905Z,19.55
2023-05-10T23:58:44.221Z,18.55
